Time;durP1;ratioP1;P1;durP2;ratioP2;P2;SDS_P1;SDS_P2;PMS_P1;PMS_P2;Temp;Humidity;BMP_temperature;BMP_pressure;BME280_temperature;BME280_humidity;BME280_pressure;Samples;Min_cycle;Max_cycle;Signal;HPM_P1;HPM_P2
2022/09/23 00:00:34;;;;;;;;;;;;;;;21.71;45.11;101699.50;5051746;28;19921;-77
2022/09/23 00:03:00;;;;;;;;;;;;;;;21.70;44.88;101697.81;5054369;28;19924;-77
2022/09/23 00:05:29;;;;;;;;;;;;;;;21.70;45.39;101688.84;5050342;28;19928;-77
2022/09/23 00:07:54;;;;;;;;;;;;;;;21.69;45.48;101690.69;5050385;28;20423;-77
2022/09/23 00:10:20;;;;;;;;;;;;;;;21.71;44.88;101677.94;5048902;28;19920;-76
2022/09/23 00:12:45;;;;;;;;;;;;;;;21.67;45.12;101672.94;5032476;28;19924;-77
2022/09/23 00:15:10;;;;;;;;;;;;;;;21.67;45.29;101678.31;5031911;28;19924;-77
2022/09/23 00:17:36;;;;;;;;;;;;;;;21.66;45.29;101682.00;5050444;28;20396;-78
2022/09/23 00:20:02;;;;;;;;;;;;;;;21.64;45.33;101679.44;5050486;28;20564;-77
2022/09/23 00:22:27;;;;;;;;;;;;;;;21.64;45.19;101674.03;5051416;28;20007;-77
2022/09/23 00:24:53;;;;;;;;;;;;;;;21.61;45.57;101679.66;5066413;28;19928;-77
2022/09/23 00:27:20;;;;;;;;;;;;;;;21.63;45.65;101676.84;5029485;28;19928;-77
2022/09/23 00:29:45;;;;;;;;;;;;;;;21.61;45.36;101679.66;5051367;28;19916;-76
2022/09/23 00:32:10;;;;;;;;;;;;;;;21.59;45.37;101679.78;5048782;28;19924;-79
2022/09/23 00:34:36;;;;;;;;;;;;;;;21.57;45.47;101676.34;5051336;28;19967;-77
2022/09/23 00:37:01;;;;;;;;;;;;;;;21.59;45.24;101669.00;5048841;28;19916;-76
2022/09/23 00:39:26;;;;;;;;;;;;;;;21.57;45.67;101684.44;5051062;28;19919;-77
2022/09/23 00:41:51;;;;;;;;;;;;;;;21.55;45.89;101674.75;5049214;28;20015;-77
2022/09/23 00:44:35;;;;;;;;;;;;;;;21.54;45.92;101675.69;5049642;28;20249;-77
2022/09/23 00:47:00;;;;;;;;;;;;;;;21.53;45.95;101673.97;5049659;28;19924;-77
2022/09/23 00:49:28;;;;;;;;;;;;;;;21.56;45.57;101662.97;5049625;28;19920;-78
2022/09/23 00:52:00;;;;;;;;;;;;;;;21.53;45.67;101660.50;5046559;28;19954;-77
2022/09/23 00:54:26;;;;;;;;;;;;;;;21.50;45.53;101664.31;5047792;28;19942;-77
2022/09/23 00:56:52;;;;;;;;;;;;;;;21.51;45.56;101655.25;5029628;28;19920;-78
2022/09/23 00:59:18;;;;;;;;;;;;;;;21.50;45.90;101663.47;5026225;28;19939;-77
2022/09/23 01:01:44;;;;;;;;;;;;;;;21.49;45.70;101661.72;5046182;28;20052;-77
2022/09/23 01:04:09;;;;;;;;;;;;;;;21.49;45.93;101656.34;5045233;28;19916;-77
2022/09/23 01:06:34;;;;;;;;;;;;;;;21.48;45.81;101652.78;5045829;28;20302;-77
2022/09/23 01:09:00;;;;;;;;;;;;;;;21.48;45.80;101663.56;5047708;28;20311;-77
2022/09/23 01:11:37;;;;;;;;;;;;;;;21.48;45.46;101660.00;5048059;28;20343;-77
2022/09/23 01:14:05;;;;;;;;;;;;;;;21.48;45.94;101660.00;5048413;28;20056;-77
2022/09/23 01:16:40;;;;;;;;;;;;;;;21.44;45.79;101656.69;5045038;28;20013;-77
2022/09/23 01:19:14;;;;;;;;;;;;;;;21.44;45.65;101660.25;5048595;28;19920;-77
2022/09/23 01:22:03;;;;;;;;;;;;;;;21.43;45.91;101657.66;5049053;28;19920;-77
2022/09/23 01:24:46;;;;;;;;;;;;;;;21.41;45.60;101652.41;5048221;28;20142;-77
2022/09/23 01:27:24;;;;;;;;;;;;;;;21.40;45.97;101650.69;5048305;28;20278;-77
2022/09/23 01:30:03;;;;;;;;;;;;;;;21.41;45.63;101644.31;5046169;28;19990;-76
2022/09/23 01:32:37;;;;;;;;;;;;;;;21.39;46.06;101646.25;5046798;28;20391;-77
2022/09/23 01:35:06;;;;;;;;;;;;;;;21.38;45.94;101641.88;5047383;28;19943;-77
2022/09/23 01:37:43;;;;;;;;;;;;;;;21.38;45.73;101632.91;5047031;28;20503;-77
2022/09/23 01:40:16;;;;;;;;;;;;;;;21.38;45.64;101641.88;5029465;28;20077;-76
2022/09/23 01:42:50;;;;;;;;;;;;;;;21.36;45.92;101627.66;5046079;28;19926;-77
2022/09/23 01:45:24;;;;;;;;;;;;;;;21.33;45.61;101627.03;5047413;28;19986;-77
2022/09/23 01:48:12;;;;;;;;;;;;;;;21.31;46.17;101624.47;5048213;28;19920;-76
2022/09/23 01:50:56;;;;;;;;;;;;;;;21.34;45.97;101612.59;5040810;28;19951;-77
2022/09/23 01:53:31;;;;;;;;;;;;;;;21.28;46.41;101620.19;5047192;28;19920;-77
2022/09/23 01:55:59;;;;;;;;;;;;;;;21.31;45.88;101629.84;5046767;28;19927;-77
2022/09/23 01:58:31;;;;;;;;;;;;;;;21.28;45.66;101622.88;5046041;28;19959;-77
2022/09/23 02:00:59;;;;;;;;;;;;;;;21.26;45.77;101618.59;5020119;28;19916;-77
2022/09/23 02:03:31;;;;;;;;;;;;;;;21.25;46.39;101620.44;5045078;28;19980;-76
2022/09/23 02:06:15;;;;;;;;;;;;;;;21.28;46.24;101601.31;5029348;28;19946;-77
2022/09/23 02:08:46;;;;;;;;;;;;;;;21.27;45.80;101607.69;5045553;28;20596;-78
2022/09/23 02:11:14;;;;;;;;;;;;;;;21.26;46.40;101607.81;5047013;28;20706;-77
2022/09/23 02:13:42;;;;;;;;;;;;;;;21.24;45.89;101605.25;5045217;28;20443;-76
2022/09/23 02:16:33;;;;;;;;;;;;;;;21.24;45.89;101607.06;5045961;28;19920;-75
2022/09/23 02:19:19;;;;;;;;;;;;;;;21.24;45.93;101602.53;5027031;28;20571;-82
2022/09/23 02:22:02;;;;;;;;;;;;;;;21.21;45.81;101604.63;5034327;28;19923;-78
2022/09/23 02:24:29;;;;;;;;;;;;;;;21.21;45.95;101596.53;5046721;28;19924;-78
2022/09/23 02:26:58;;;;;;;;;;;;;;;21.18;46.17;101597.63;5044904;28;20451;-78
2022/09/23 02:29:28;;;;;;;;;;;;;;;21.17;46.40;101595.91;5044884;28;19982;-78
2022/09/23 02:32:02;;;;;;;;;;;;;;;21.15;46.04;101599.69;5026614;28;19920;-78
2022/09/23 02:34:36;;;;;;;;;;;;;;;21.12;45.94;101595.41;5044878;28;19923;-78
2022/09/23 02:37:07;;;;;;;;;;;;;;;21.15;46.32;101597.88;5046586;28;19966;-78
2022/09/23 02:39:41;;;;;;;;;;;;;;;21.11;46.15;101594.56;5044530;28;21346;-78
2022/09/23 02:42:11;;;;;;;;;;;;;;;21.12;46.00;101592.72;5045643;28;19920;-78
2022/09/23 02:44:36;;;;;;;;;;;;;;;21.13;46.41;101593.59;5045173;28;19920;-77
2022/09/23 02:47:02;;;;;;;;;;;;;;;21.12;46.41;101579.25;5045817;28;20760;-78
2022/09/23 02:49:28;;;;;;;;;;;;;;;21.11;46.10;101581.09;5045015;28;20375;-78
2022/09/23 02:51:54;;;;;;;;;;;;;;;21.10;45.96;101571.31;5046234;28;20497;-78
2022/09/23 02:54:21;;;;;;;;;;;;;;;21.10;45.97;101570.44;5045034;28;21328;-78
2022/09/23 02:56:48;;;;;;;;;;;;;;;21.10;46.08;101575.81;5046958;28;19916;-78
2022/09/23 02:59:18;;;;;;;;;;;;;;;21.09;46.59;101568.72;5048587;28;19931;-78
2022/09/23 03:01:51;;;;;;;;;;;;;;;21.06;46.47;101566.25;5046167;28;20086;-78
2022/09/23 03:04:19;;;;;;;;;;;;;;;21.08;46.01;101562.47;5029072;28;20284;-77
2022/09/23 03:07:11;;;;;;;;;;;;;;;21.07;46.64;101559.91;5027272;28;20011;-77
2022/09/23 03:09:56;;;;;;;;;;;;;;;21.05;46.32;101557.34;5042408;28;19916;-79
2022/09/23 03:12:34;;;;;;;;;;;;;;;21.02;46.56;101562.94;5050722;28;19920;-79
2022/09/23 03:15:19;;;;;;;;;;;;;;;21.01;46.40;101561.25;5049159;28;19920;-78
2022/09/23 03:17:45;;;;;;;;;;;;;;;21.02;46.12;101554.03;5046988;28;20350;-78
2022/09/23 03:20:18;;;;;;;;;;;;;;;21.03;46.34;101553.91;5045294;28;20035;-79
2022/09/23 03:22:46;;;;;;;;;;;;;;;21.04;46.36;101554.78;5046112;28;20403;-77
2022/09/23 03:25:14;;;;;;;;;;;;;;;21.03;46.25;101555.75;5046628;28;19931;-77
2022/09/23 03:27:41;;;;;;;;;;;;;;;20.98;46.46;101552.56;5045592;28;20073;-77
2022/09/23 03:30:07;;;;;;;;;;;;;;;21.01;46.36;101558.56;5026555;28;20275;-77
2022/09/23 03:32:33;;;;;;;;;;;;;;;20.96;46.47;101550.00;5044162;28;19975;-77
2022/09/23 03:34:59;;;;;;;;;;;;;;;20.99;46.26;101548.88;5043428;28;19988;-77
2022/09/23 03:37:30;;;;;;;;;;;;;;;21.00;46.64;101547.88;5043412;28;19931;-78
2022/09/23 03:40:28;;;;;;;;;;;;;;;20.97;46.38;101554.38;5027770;28;20054;-77
2022/09/23 03:42:55;;;;;;;;;;;;;;;20.95;46.46;101557.19;4996385;28;19920;-78
2022/09/23 03:45:22;;;;;;;;;;;;;;;20.95;46.75;101548.28;5045432;28;19931;-77
2022/09/23 03:47:47;;;;;;;;;;;;;;;20.91;46.90;101539.56;5046017;28;20359;-77
2022/09/23 03:50:16;;;;;;;;;;;;;;;20.92;46.66;101541.28;5062217;28;20296;-77
2022/09/23 03:52:41;;;;;;;;;;;;;;;20.93;46.53;101540.31;5044240;28;20126;-78
2022/09/23 03:55:07;;;;;;;;;;;;;;;20.95;46.86;101535.66;5021550;28;19962;-78
2022/09/23 03:57:32;;;;;;;;;;;;;;;20.92;46.76;101530.53;5047892;28;19920;-77
2022/09/23 03:59:57;;;;;;;;;;;;;;;20.92;46.36;101529.63;5046422;28;19924;-77
2022/09/23 04:02:22;;;;;;;;;;;;;;;20.91;46.83;101527.94;5042733;28;19925;-78
2022/09/23 04:04:48;;;;;;;;;;;;;;;20.93;46.72;101521.47;5043901;28;20346;-78
2022/09/23 04:07:13;;;;;;;;;;;;;;;20.95;46.16;101524.03;5046102;28;20010;-78
2022/09/23 04:09:38;;;;;;;;;;;;;;;20.91;46.39;101522.56;5045154;28;19924;-78
2022/09/23 04:12:04;;;;;;;;;;;;;;;20.86;46.57;101519.38;5043551;28;19924;-78
2022/09/23 04:14:29;;;;;;;;;;;;;;;20.88;46.67;101512.91;5026247;28;20435;-77
2022/09/23 04:16:55;;;;;;;;;;;;;;;20.89;46.54;101514.59;5027918;28;19962;-77
2022/09/23 04:19:20;;;;;;;;;;;;;;;20.89;46.37;101509.19;5045696;28;20351;-77
2022/09/23 04:21:46;;;;;;;;;;;;;;;20.86;46.54;101512.16;5044594;28;20032;-77
2022/09/23 04:24:11;;;;;;;;;;;;;;;20.88;46.77;101514.72;5028616;28;20667;-77
2022/09/23 04:26:37;;;;;;;;;;;;;;;20.85;46.43;101510.44;5026804;28;19924;-77
2022/09/23 04:29:03;;;;;;;;;;;;;;;20.85;46.75;101506.88;5046253;28;19970;-77
2022/09/23 04:31:29;;;;;;;;;;;;;;;20.85;46.69;101506.88;5046975;28;19931;-78
2022/09/23 04:33:54;;;;;;;;;;;;;;;20.83;46.98;101508.84;5029605;28;19916;-77
2022/09/23 04:36:20;;;;;;;;;;;;;;;20.83;46.88;101509.72;5048334;28;20005;-77
2022/09/23 04:38:46;;;;;;;;;;;;;;;20.84;46.38;101510.56;5050475;28;20044;-77
2022/09/23 04:41:11;;;;;;;;;;;;;;;20.83;46.88;101506.13;5050467;28;20196;-77
2022/09/23 04:43:37;;;;;;;;;;;;;;;20.83;46.41;101508.84;5048317;28;20255;-77
2022/09/23 04:46:04;;;;;;;;;;;;;;;20.82;46.85;101499.03;5048664;28;19987;-77
2022/09/23 04:48:30;;;;;;;;;;;;;;;20.82;46.78;101499.03;5048090;28;19924;-77
2022/09/23 04:51:03;;;;;;;;;;;;;;;20.83;46.58;101495.38;5047409;28;20765;-77
2022/09/23 04:53:29;;;;;;;;;;;;;;;20.80;46.79;101504.53;5048256;28;20039;-77
2022/09/23 04:55:59;;;;;;;;;;;;;;;20.81;46.48;101506.25;5048481;28;19920;-77
2022/09/23 04:58:24;;;;;;;;;;;;;;;20.82;46.84;101507.09;5049584;28;20433;-77
2022/09/23 05:00:49;;;;;;;;;;;;;;;20.77;46.89;101505.63;5050021;28;19928;-77
2022/09/23 05:03:15;;;;;;;;;;;;;;;20.80;47.06;101512.63;5048407;28;19920;-78
2022/09/23 05:05:41;;;;;;;;;;;;;;;20.78;47.03;101514.56;5054510;28;19986;-78
2022/09/23 05:08:06;;;;;;;;;;;;;;;20.82;46.79;101516.06;5062924;28;19973;-78
2022/09/23 05:10:31;;;;;;;;;;;;;;;20.80;46.97;101515.31;5053145;28;20027;-78
2022/09/23 05:12:57;;;;;;;;;;;;;;;20.78;46.89;101509.19;5050890;28;19920;-77
2022/09/23 05:15:23;;;;;;;;;;;;;;;20.76;46.85;101519.22;5053449;28;20390;-78
2022/09/23 05:17:48;;;;;;;;;;;;;;;20.75;47.06;101510.28;5029931;28;19982;-78
2022/09/23 05:20:13;;;;;;;;;;;;;;;20.78;47.06;101514.56;5050155;28;19931;-78
2022/09/23 05:22:38;;;;;;;;;;;;;;;20.79;46.53;101509.09;5049728;28;19920;-77
2022/09/23 05:25:04;;;;;;;;;;;;;;;20.78;47.01;101514.56;5066023;28;20288;-78
2022/09/23 05:27:30;;;;;;;;;;;;;;;20.77;47.03;101511.03;5063463;28;20036;-77
2022/09/23 05:29:56;;;;;;;;;;;;;;;20.75;46.73;101517.50;5067351;28;20392;-78
2022/09/23 05:32:21;;;;;;;;;;;;;;;20.75;47.07;101514.81;5034279;28;19963;-77
2022/09/23 05:34:46;;;;;;;;;;;;;;;20.76;47.05;101516.53;5064896;28;20899;-77
2022/09/23 05:37:11;;;;;;;;;;;;;;;20.74;47.12;101518.47;5062344;28;19916;-78
2022/09/23 05:39:37;;;;;;;;;;;;;;;20.73;46.53;101514.06;5064715;28;20010;-77
2022/09/23 05:42:02;;;;;;;;;;;;;;;20.72;47.11;101526.66;5065730;28;20343;-77
2022/09/23 05:44:28;;;;;;;;;;;;;;;20.75;46.93;101521.03;5055277;28;19998;-77
2022/09/23 05:46:53;;;;;;;;;;;;;;;20.72;47.01;101520.44;5066398;28;19955;-77
2022/09/23 05:49:18;;;;;;;;;;;;;;;20.74;46.82;101521.16;5058477;28;19927;-77
2022/09/23 05:51:43;;;;;;;;;;;;;;;20.81;46.78;101518.84;5064548;28;19921;-77
2022/09/23 05:54:09;;;;;;;;;;;;;;;20.84;46.95;101510.56;5059688;28;19920;-77
2022/09/23 05:56:36;;;;;;;;;;;;;;;20.91;46.20;101522.56;5061293;28;20038;-78
2022/09/23 05:59:02;;;;;;;;;;;;;;;20.96;46.60;101520.38;5053213;28;20006;-77
2022/09/23 06:01:30;;;;;;;;;;;;;;;21.05;46.13;101524.16;5051202;28;20388;-78
2022/09/23 06:03:56;;;;;;;;;;;;;;;21.10;45.73;101520.13;5054212;28;19927;-77
2022/09/23 06:06:25;;;;;;;;;;;;;;;21.18;45.76;101521.38;5063610;28;20351;-78
2022/09/23 06:08:50;;;;;;;;;;;;;;;21.28;46.04;101530.44;5046741;28;19920;-78
2022/09/23 06:11:15;;;;;;;;;;;;;;;21.37;46.22;101521.63;5029081;28;20045;-78
2022/09/23 06:13:40;;;;;;;;;;;;;;;21.44;46.01;101516.59;5062963;28;19928;-77
2022/09/23 06:16:07;;;;;;;;;;;;;;;21.50;46.04;101518.78;5047079;28;19920;-78
2022/09/23 06:18:33;;;;;;;;;;;;;;;21.52;45.70;101518.66;5046621;28;20086;-78
2022/09/23 06:21:02;;;;;;;;;;;;;;;21.54;45.94;101509.47;5047081;28;19924;-78
2022/09/23 06:23:27;;;;;;;;;;;;;;;21.56;46.08;101512.06;5045133;28;19936;-78
2022/09/23 06:25:53;;;;;;;;;;;;;;;21.54;46.11;101514.00;5043861;28;19935;-77
2022/09/23 06:28:18;;;;;;;;;;;;;;;21.50;45.88;101517.94;5046337;28;19920;-77
2022/09/23 06:30:44;;;;;;;;;;;;;;;21.47;46.23;101512.78;5045332;28;19926;-78
2022/09/23 06:33:09;;;;;;;;;;;;;;;21.44;46.34;101509.38;5047305;28;19974;-77
2022/09/23 06:35:34;;;;;;;;;;;;;;;21.46;45.80;101509.25;5046124;28;20148;-78
2022/09/23 06:38:03;;;;;;;;;;;;;;;21.45;45.99;101507.53;5047169;28;19927;-78
2022/09/23 06:40:29;;;;;;;;;;;;;;;21.48;46.21;101501.88;5046325;28;19916;-77
2022/09/23 06:42:59;;;;;;;;;;;;;;;21.47;45.99;101502.88;5036449;28;19945;-80
2022/09/23 06:45:24;;;;;;;;;;;;;;;21.47;46.22;101507.41;5058894;28;19924;-81
2022/09/23 06:47:54;;;;;;;;;;;;;;;21.46;46.51;101509.25;5054744;28;19924;-81
2022/09/23 06:50:20;;;;;;;;;;;;;;;21.46;46.49;101503.84;5055178;28;19923;-80
2022/09/23 06:52:49;;;;;;;;;;;;;;;21.44;46.00;101505.81;5055139;28;20698;-80
2022/09/23 06:55:14;;;;;;;;;;;;;;;21.41;46.29;101504.22;5038356;28;19920;-80
2022/09/23 06:57:40;;;;;;;;;;;;;;;21.41;46.50;101498.00;5055732;28;19928;-80
2022/09/23 07:00:06;;;;;;;;;;;;;;;21.40;46.73;101498.97;5068145;28;19951;-80
2022/09/23 07:02:31;;;;;;;;;;;;;;;21.38;46.82;101499.09;5051136;28;19924;-80
2022/09/23 07:04:56;;;;;;;;;;;;;;;21.39;46.83;101506.16;5055723;28;20021;-80
2022/09/23 07:07:22;;;;;;;;;;;;;;;21.41;46.71;101501.53;5054076;28;20011;-80
2022/09/23 07:09:47;;;;;;;;;;;;;;;21.40;46.57;101507.88;5039461;28;20034;-81
2022/09/23 07:12:12;;;;;;;;;;;;;;;21.39;46.31;101502.63;5038701;28;20082;-81
2022/09/23 07:14:38;;;;;;;;;;;;;;;21.37;46.63;101505.44;5057366;28;20783;-81
2022/09/23 07:17:03;;;;;;;;;;;;;;;21.35;46.83;101501.16;5059532;28;20367;-80
2022/09/23 07:19:28;;;;;;;;;;;;;;;21.34;46.66;101499.44;5036891;28;19920;-81
2022/09/23 07:21:54;;;;;;;;;;;;;;;21.34;46.54;101500.28;5052421;28;19931;-80
2022/09/23 07:24:19;;;;;;;;;;;;;;;21.35;46.57;101506.56;5050873;28;19992;-81
2022/09/23 07:26:44;;;;;;;;;;;;;;;21.34;46.38;101492.22;5053286;28;19920;-81
2022/09/23 07:29:12;;;;;;;;;;;;;;;21.35;46.35;101498.47;5052070;28;19989;-81
2022/09/23 07:31:37;;;;;;;;;;;;;;;21.34;46.63;101505.69;5064151;28;19924;-81
2022/09/23 07:34:02;;;;;;;;;;;;;;;21.35;46.81;101496.63;5034443;28;20280;-81
2022/09/23 07:36:30;;;;;;;;;;;;;;;21.32;46.74;101502.28;5053468;28;19924;-81
2022/09/23 07:39:02;;;;;;;;;;;;;;;21.33;46.72;101500.41;5065694;28;20314;-80
2022/09/23 07:41:27;;;;;;;;;;;;;;;21.34;46.72;101496.75;5033730;28;19916;-81
2022/09/23 07:43:55;;;;;;;;;;;;;;;21.34;46.61;101500.28;5057835;28;20390;-81
2022/09/23 07:46:20;;;;;;;;;;;;;;;21.35;46.65;101506.56;5058822;28;19959;-80
2022/09/23 07:48:46;;;;;;;;;;;;;;;21.33;46.80;101506.69;5055549;28;20283;-81
2022/09/23 07:51:15;;;;;;;;;;;;;;;21.36;46.76;101508.28;5055362;28;19978;-80
2022/09/23 07:53:40;;;;;;;;;;;;;;;21.34;46.33;101513.75;5055813;28;20023;-80
2022/09/23 07:56:05;;;;;;;;;;;;;;;21.34;46.98;101513.75;5051246;28;19922;-80
2022/09/23 07:58:31;;;;;;;;;;;;;;;21.33;46.70;101508.50;5055671;28;19923;-80
2022/09/23 08:01:09;;;;;;;;;;;;;;;21.33;46.51;101511.19;5058649;28;19920;-80
2022/09/23 08:03:34;;;;;;;;;;;;;;;21.33;46.35;101509.38;5058182;28;20407;-80
2022/09/23 08:06:04;;;;;;;;;;;;;;;21.34;46.48;101512.91;5058824;28;20002;-80
2022/09/23 08:08:29;;;;;;;;;;;;;;;21.36;47.12;101510.97;5038342;28;19986;-80
2022/09/23 08:11:02;;;;;;;;;;;;;;;21.36;46.70;101513.66;5038656;28;20661;-80
2022/09/23 08:13:27;;;;;;;;;;;;;;;21.36;46.71;101516.34;5057472;28;20435;-81
2022/09/23 08:15:52;;;;;;;;;;;;;;;21.36;46.70;101511.81;5057930;28;20010;-80
2022/09/23 08:18:18;;;;;;;;;;;;;;;21.37;46.69;101508.16;5040931;28;19920;-81
2022/09/23 08:20:43;;;;;;;;;;;;;;;21.35;46.75;101503.84;5063846;28;20642;-80
2022/09/23 08:23:09;;;;;;;;;;;;;;;21.35;46.92;101510.09;5067826;28;20327;-80
2022/09/23 08:25:34;;;;;;;;;;;;;;;21.38;47.07;101511.69;5065116;28;19929;-80
2022/09/23 08:28:00;;;;;;;;;;;;;;;21.40;47.31;101515.13;5082417;28;19920;-80
2022/09/23 08:30:25;;;;;;;;;;;;;;;21.43;47.50;101513.03;5062737;28;19928;-77
2022/09/23 08:32:50;;;;;;;;;;;;;;;21.50;47.52;101512.56;5050396;28;19924;-76
2022/09/23 08:35:15;;;;;;;;;;;;;;;21.53;47.57;101510.44;5044043;28;19924;-74
2022/09/23 08:37:41;;;;;;;;;;;;;;;21.55;47.75;101516.63;5022674;28;20116;-76
2022/09/23 08:40:06;;;;;;;;;;;;;;;21.58;47.70;101510.97;5042523;28;19931;-75
2022/09/23 08:42:32;;;;;;;;;;;;;;;21.64;47.41;101508.75;5022801;28;20099;-76
2022/09/23 08:45:00;;;;;;;;;;;;;;;21.65;47.43;101521.25;5044561;28;20085;-75
2022/09/23 08:47:28;;;;;;;;;;;;;;;21.67;47.99;101516.59;5042258;28;20276;-75
2022/09/23 08:49:59;;;;;;;;;;;;;;;21.70;47.60;101509.13;5047567;28;20403;-75
2022/09/23 08:52:38;;;;;;;;;;;;;;;21.73;47.37;101518.81;5046009;28;19920;-75
2022/09/23 08:55:04;;;;;;;;;;;;;;;21.80;47.31;101514.59;5045882;28;19920;-75
2022/09/23 08:57:33;;;;;;;;;;;;;;;21.82;47.50;101518.03;5043606;28;19920;-75
2022/09/23 09:00:00;;;;;;;;;;;;;;;21.85;47.44;101516.94;5042296;28;19920;-75
2022/09/23 09:02:26;;;;;;;;;;;;;;;21.90;47.25;101518.25;5046213;28;20495;-72
2022/09/23 09:04:58;;;;;;;;;;;;;;;21.91;47.18;101521.81;5042199;28;19920;-72
2022/09/23 09:07:28;;;;;;;;;;;;;;;21.93;47.50;101517.16;5040680;28;19931;-72
2022/09/23 09:09:57;;;;;;;;;;;;;;;21.96;47.33;101507.94;5043976;28;19914;-72
2022/09/23 09:12:28;;;;;;;;;;;;;;;21.91;47.46;101517.28;5045401;28;20531;-73
2022/09/23 09:14:53;;;;;;;;;;;;;;;21.98;47.27;101519.47;5045768;28;19951;-70
2022/09/23 09:17:26;;;;;;;;;;;;;;;22.00;47.61;101517.50;5045667;28;20538;-72
2022/09/23 09:19:54;;;;;;;;;;;;;;;21.97;47.60;101520.44;5041529;28;19924;-72
2022/09/23 09:22:38;;;;;;;;;;;;;;;21.97;48.21;101510.53;5040292;28;19924;-72
2022/09/23 09:25:22;;;;;;;;;;;;;;;22.00;48.46;101517.50;5039415;28;19922;-72
2022/09/23 09:27:47;;;;;;;;;;;;;;;22.04;48.75;101518.97;5039483;28;20635;-72
2022/09/23 09:30:13;;;;;;;;;;;;;;;22.03;49.00;101515.41;5042137;28;19924;-73
2022/09/23 09:32:56;;;;;;;;;;;;;;;22.08;49.04;101518.59;5021819;28;20316;-73
2022/09/23 09:35:42;;;;;;;;;;;;;;;22.12;48.87;101510.25;5019361;28;19923;-72
2022/09/23 09:38:07;;;;;;;;;;;;;;;22.16;48.64;101515.25;5027406;28;20368;-72
2022/09/23 09:40:33;;;;;;;;;;;;;;;22.18;49.07;101498.94;5040989;28;19925;-75
2022/09/23 09:43:03;;;;;;;;;;;;;;;22.21;49.11;101495.97;5044168;28;19916;-73
2022/09/23 09:45:28;;;;;;;;;;;;;;;22.21;49.25;101504.94;5044160;28;19930;-71
2022/09/23 09:48:16;;;;;;;;;;;;;;;22.25;48.67;101489.31;5042541;28;19920;-74
2022/09/23 09:50:48;;;;;;;;;;;;;;;22.15;49.07;101491.97;5031427;28;20402;-77
2022/09/23 09:53:14;;;;;;;;;;;;;;;22.12;49.29;101492.19;5025808;28;19969;-76
2022/09/23 09:55:40;;;;;;;;;;;;;;;22.13;48.97;101496.63;5043160;28;20701;-76
2022/09/23 09:58:05;;;;;;;;;;;;;;;22.13;49.34;101488.53;5043195;28;19955;-80
2022/09/23 10:00:35;;;;;;;;;;;;;;;22.09;49.73;101493.31;5026362;28;19916;-80
2022/09/23 10:03:23;;;;;;;;;;;;;;;22.09;49.59;101487.06;5025905;28;20027;-81
2022/09/23 10:05:51;;;;;;;;;;;;;;;22.08;49.66;101485.34;5045602;28;19927;-73
2022/09/23 10:08:35;;;;;;;;;;;;;;;22.08;49.65;101488.06;5046029;28;20424;-73
2022/09/23 10:11:02;;;;;;;;;;;;;;;22.09;50.02;101481.69;5043696;28;20734;-73
2022/09/23 10:13:29;;;;;;;;;;;;;;;22.08;49.97;101479.97;5043252;28;21283;-72
2022/09/23 10:15:55;;;;;;;;;;;;;;;22.07;50.48;101483.63;5026878;28;20498;-73
2022/09/23 10:18:30;;;;;;;;;;;;;;;22.08;49.80;101486.22;5019961;28;19920;-73
2022/09/23 10:21:06;;;;;;;;;;;;;;;22.10;50.17;101480.69;5043239;28;19924;-72
2022/09/23 10:23:32;;;;;;;;;;;;;;;22.07;50.17;101478.25;5040577;28;19924;-73
2022/09/23 10:25:59;;;;;;;;;;;;;;;22.05;50.16;101475.69;5043399;28;20311;-73
2022/09/23 10:28:36;;;;;;;;;;;;;;;22.05;50.51;101478.38;5042876;28;20122;-72
2022/09/23 10:31:08;;;;;;;;;;;;;;;22.16;50.08;101474.78;5043387;28;19955;-74
2022/09/23 10:33:38;;;;;;;;;;;;;;;22.20;49.88;101475.38;5042870;28;20049;-74
2022/09/23 10:36:07;;;;;;;;;;;;;;;22.23;49.84;101472.44;5043196;28;19920;-71
2022/09/23 10:38:32;;;;;;;;;;;;;;;22.24;49.69;101475.00;5032202;28;20503;-71
2022/09/23 10:46:40;;;;;;;;;;;;;;;22.13;50.04;101476.91;5033814;28;20318;-72
2022/09/23 10:49:23;;;;;;;;;;;;;;;22.08;50.10;101474.56;5034913;28;20815;-72
2022/09/23 10:52:03;;;;;;;;;;;;;;;22.08;50.24;101469.19;5037751;28;19924;-72
2022/09/23 10:54:48;;;;;;;;;;;;;;;22.06;50.05;101469.31;5019307;28;19994;-70
2022/09/23 10:57:39;;;;;;;;;;;;;;;22.08;50.07;101463.78;5037443;28;19939;-71
2022/09/23 11:00:11;;;;;;;;;;;;;;;22.07;49.77;101467.47;5039338;28;19920;-71
2022/09/23 11:02:48;;;;;;;;;;;;;;;22.05;50.02;101467.59;5039121;28;20176;-72
2022/09/23 11:05:14;;;;;;;;;;;;;;;22.05;49.92;101461.34;5038860;28;19916;-72
2022/09/23 11:07:46;;;;;;;;;;;;;;;22.04;49.64;101471.25;5037875;28;19920;-72
2022/09/23 11:10:30;;;;;;;;;;;;;;;22.05;49.70;101464.06;5052427;28;20512;-72
2022/09/23 11:12:55;;;;;;;;;;;;;;;22.06;49.76;101471.16;5037017;28;20374;-72
2022/09/23 11:15:39;;;;;;;;;;;;;;;22.04;49.74;101459.63;5036646;28;19926;-72
2022/09/23 11:18:04;;;;;;;;;;;;;;;22.04;49.71;101468.56;5037358;28;19920;-73
2022/09/23 11:20:42;;;;;;;;;;;;;;;22.04;49.56;101457.78;5037551;28;19927;-72
2022/09/23 11:23:08;;;;;;;;;;;;;;;22.04;49.67;101460.47;5037549;28;19978;-72
2022/09/23 11:25:36;;;;;;;;;;;;;;;22.04;49.91;101460.47;5038583;28;20003;-72
2022/09/23 11:28:04;;;;;;;;;;;;;;;22.06;49.82;101458.53;5036465;28;20002;-73
2022/09/23 11:30:37;;;;;;;;;;;;;;;22.07;49.69;101457.53;5036701;28;20648;-72
2022/09/23 11:33:03;;;;;;;;;;;;;;;22.08;49.46;101459.25;5036090;28;19920;-72
2022/09/23 11:35:28;;;;;;;;;;;;;;;22.08;49.63;101453.00;5036529;28;20294;-72
2022/09/23 11:37:56;;;;;;;;;;;;;;;22.06;49.60;101455.81;5019536;28;19916;-72
2022/09/23 11:40:28;;;;;;;;;;;;;;;22.08;49.68;101448.47;5036712;28;19921;-72
2022/09/23 11:43:09;;;;;;;;;;;;;;;22.10;49.94;101448.34;5036397;28;19923;-72
2022/09/23 11:45:43;;;;;;;;;;;;;;;22.13;49.63;101444.53;5025096;28;20557;-72
2022/09/23 11:48:16;;;;;;;;;;;;;;;22.13;49.73;101444.53;5037195;28;20407;-73
2022/09/23 11:50:52;;;;;;;;;;;;;;;22.15;49.95;101445.22;5037396;28;20545;-72
2022/09/23 11:53:20;;;;;;;;;;;;;;;22.16;49.48;101436.16;5038447;28;19924;-72
2022/09/23 11:55:49;;;;;;;;;;;;;;;22.20;49.88;101432.22;5036777;28;19927;-73
2022/09/23 11:58:14;;;;;;;;;;;;;;;22.22;49.51;101427.56;5038268;28;20155;-73
2022/09/23 12:00:44;;;;;;;;;;;;;;;22.25;49.44;101427.28;5040436;28;19920;-73
2022/09/23 12:03:22;;;;;;;;;;;;;;;22.26;49.46;101426.28;5038455;28;20456;-72
2022/09/23 12:05:51;;;;;;;;;;;;;;;22.25;49.52;101427.28;5039928;28;19945;-73
2022/09/23 12:08:28;;;;;;;;;;;;;;;22.27;49.53;101414.53;5040416;28;21696;-72
2022/09/23 12:11:00;;;;;;;;;;;;;;;22.25;49.43;101422.75;5043353;28;19916;-72
2022/09/23 12:13:33;;;;;;;;;;;;;;;22.26;49.61;101429.88;5041195;28;20881;-72
2022/09/23 12:16:04;;;;;;;;;;;;;;;22.26;49.62;101431.69;5041160;28;20393;-71
2022/09/23 12:18:41;;;;;;;;;;;;;;;22.29;49.65;101420.66;5038374;28;19933;-72
2022/09/23 12:21:28;;;;;;;;;;;;;;;22.28;49.69;101418.94;5036667;28;20646;-71
2022/09/23 12:23:58;;;;;;;;;;;;;;;22.26;49.43;101415.50;5019293;28;20340;-72
2022/09/23 12:26:24;;;;;;;;;;;;;;;22.26;49.81;101416.38;5036767;28;20024;-71
2022/09/23 12:28:52;;;;;;;;;;;;;;;22.26;49.63;101407.41;5035851;28;20522;-72
2022/09/23 12:31:19;;;;;;;;;;;;;;;22.32;49.88;101409.59;5037368;28;20381;-72
2022/09/23 12:33:52;;;;;;;;;;;;;;;22.29;49.97;101412.56;5038409;28;19921;-72
2022/09/23 12:36:25;;;;;;;;;;;;;;;22.28;50.06;101405.44;5036679;28;19969;-70
2022/09/23 12:38:52;;;;;;;;;;;;;;;22.32;49.81;101408.75;5036817;28;19921;-72
2022/09/23 12:41:18;;;;;;;;;;;;;;;22.32;50.20;101406.03;5035962;28;19916;-72
2022/09/23 12:43:55;;;;;;;;;;;;;;;22.34;49.98;101406.75;5037372;28;20650;-71
2022/09/23 12:46:26;;;;;;;;;;;;;;;22.36;49.91;101407.50;5019764;28;19920;-71
2022/09/23 12:48:57;;;;;;;;;;;;;;;22.35;49.99;101401.22;5043035;28;19925;-71
2022/09/23 12:51:23;;;;;;;;;;;;;;;22.37;49.95;101395.75;5042845;28;20402;-71